aviador You're here:

KUUU Decoded Metar

NEWPORT in RI, USA
Report Time2018-02-22 14:53:00
UTC Time2018-02-22 14:59:13
Flight Rules vfr VFR
Wind040° at 08 kt
W.Decomp.*RWY 04: 7.7 kt HW 2.1 kt RCW
RWY 34: 2.1 kt HW 7.7 kt RCW
W.Rank040° ranks 21
Current wind is above 040° avg. (7.9)
Visibility9999 m
Phenomena:N/A
Clouds:Overcast 070 Hf
Expected CloudBase > 2,800 ft AGL from Temp-Dew spread
Ceiling7,000 ft
Temp06°C (ISA -9)
Dew Point-1°C (61% RH)
AAT1.0°C
QNH1037 hPa
Density Alt-1,608 ft
Elevation167 ft
Report Wrong Elevation
Raw Report
METAR KUUU 221453Z AUTO 04008KT 10SM OVC070 06/M01 A3061 RMK AO2
SLP365 60000 T00611006 53008=

Extra information for KUUU:More info

Metar Taf Metar & Taf Last 4 Metars F.Rules Stats Wind Profile Meteogram Temp Stats Airport Information Weather charts Add Link Nearby VenuesMetar ALERT Operation Metar Decoded Social comments

AIRNAV info for KUUU